sensor_id;sensor_type;location;lat;lon;timestamp;P1;durP1;ratioP1;P2;durP2;ratioP2
82409;SDS011;72049;51.766;6.846;2023-08-31T00:01:01;5.25;;;2.90;;
82409;SDS011;72049;51.766;6.846;2023-08-31T00:03:34;7.80;;;3.20;;
82409;SDS011;72049;51.766;6.846;2023-08-31T00:06:02;6.70;;;3.50;;
82409;SDS011;72049;51.766;6.846;2023-08-31T00:08:29;6.45;;;3.05;;
82409;SDS011;72049;51.766;6.846;2023-08-31T00:10:58;8.95;;;3.03;;
82409;SDS011;72049;51.766;6.846;2023-08-31T00:13:28;4.80;;;2.88;;
82409;SDS011;72049;51.766;6.846;2023-08-31T00:15:57;5.45;;;2.72;;
82409;SDS011;72049;51.766;6.846;2023-08-31T00:18:23;5.43;;;2.30;;
82409;SDS011;72049;51.766;6.846;2023-08-31T00:20:49;4.85;;;2.20;;
82409;SDS011;72049;51.766;6.846;2023-08-31T00:23:15;5.65;;;2.25;;
82409;SDS011;72049;51.766;6.846;2023-08-31T00:25:43;7.18;;;2.45;;
82409;SDS011;72049;51.766;6.846;2023-08-31T00:28:13;6.05;;;1.98;;
82409;SDS011;72049;51.766;6.846;2023-08-31T00:30:47;5.28;;;1.92;;
82409;SDS011;72049;51.766;6.846;2023-08-31T00:33:14;3.33;;;1.60;;
82409;SDS011;72049;51.766;6.846;2023-08-31T00:35:39;4.03;;;1.60;;
82409;SDS011;72049;51.766;6.846;2023-08-31T00:38:11;4.88;;;1.85;;
82409;SDS011;72049;51.766;6.846;2023-08-31T00:40:39;4.35;;;2.10;;
82409;SDS011;72049;51.766;6.846;2023-08-31T00:43:06;3.80;;;2.15;;
82409;SDS011;72049;51.766;6.846;2023-08-31T00:45:32;4.32;;;1.92;;
82409;SDS011;72049;51.766;6.846;2023-08-31T00:47:58;3.88;;;1.63;;
82409;SDS011;72049;51.766;6.846;2023-08-31T00:50:25;3.15;;;1.40;;
82409;SDS011;72049;51.766;6.846;2023-08-31T00:52:50;4.97;;;1.80;;
82409;SDS011;72049;51.766;6.846;2023-08-31T00:55:18;5.20;;;1.83;;
82409;SDS011;72049;51.766;6.846;2023-08-31T00:57:44;3.33;;;1.77;;
82409;SDS011;72049;51.766;6.846;2023-08-31T01:00:10;6.47;;;1.85;;
82409;SDS011;72049;51.766;6.846;2023-08-31T01:05:13;3.72;;;1.80;;
82409;SDS011;72049;51.766;6.846;2023-08-31T01:07:41;3.45;;;1.92;;
82409;SDS011;72049;51.766;6.846;2023-08-31T01:12:46;4.60;;;2.72;;
82409;SDS011;72049;51.766;6.846;2023-08-31T01:15:15;4.68;;;2.75;;
82409;SDS011;72049;51.766;6.846;2023-08-31T01:17:44;4.63;;;2.78;;
82409;SDS011;72049;51.766;6.846;2023-08-31T01:20:16;5.07;;;2.30;;
82409;SDS011;72049;51.766;6.846;2023-08-31T01:25:26;6.60;;;2.50;;
82409;SDS011;72049;51.766;6.846;2023-08-31T01:27:58;6.32;;;2.85;;
82409;SDS011;72049;51.766;6.846;2023-08-31T01:30:29;5.90;;;2.97;;
82409;SDS011;72049;51.766;6.846;2023-08-31T01:32:59;6.20;;;3.15;;
82409;SDS011;72049;51.766;6.846;2023-08-31T01:35:26;8.10;;;3.40;;
82409;SDS011;72049;51.766;6.846;2023-08-31T01:37:56;7.18;;;2.80;;
82409;SDS011;72049;51.766;6.846;2023-08-31T01:40:28;6.05;;;2.85;;
82409;SDS011;72049;51.766;6.846;2023-08-31T01:42:58;6.32;;;3.08;;
82409;SDS011;72049;51.766;6.846;2023-08-31T01:45:24;7.47;;;3.28;;
82409;SDS011;72049;51.766;6.846;2023-08-31T01:47:50;6.13;;;3.38;;
82409;SDS011;72049;51.766;6.846;2023-08-31T01:50:17;5.85;;;3.00;;
82409;SDS011;72049;51.766;6.846;2023-08-31T01:52:42;7.40;;;3.17;;
82409;SDS011;72049;51.766;6.846;2023-08-31T01:55:08;4.78;;;3.00;;
82409;SDS011;72049;51.766;6.846;2023-08-31T01:57:33;6.43;;;3.45;;
82409;SDS011;72049;51.766;6.846;2023-08-31T02:00:06;9.70;;;4.00;;
82409;SDS011;72049;51.766;6.846;2023-08-31T02:02:39;7.88;;;3.55;;
82409;SDS011;72049;51.766;6.846;2023-08-31T02:05:05;8.55;;;3.72;;
82409;SDS011;72049;51.766;6.846;2023-08-31T02:07:31;9.43;;;4.05;;
82409;SDS011;72049;51.766;6.846;2023-08-31T02:09:56;8.25;;;3.97;;
82409;SDS011;72049;51.766;6.846;2023-08-31T02:12:22;8.18;;;4.15;;
82409;SDS011;72049;51.766;6.846;2023-08-31T02:14:47;6.88;;;4.00;;
82409;SDS011;72049;51.766;6.846;2023-08-31T02:17:13;9.02;;;3.97;;
82409;SDS011;72049;51.766;6.846;2023-08-31T02:19:38;7.93;;;4.25;;
82409;SDS011;72049;51.766;6.846;2023-08-31T02:22:04;10.30;;;4.95;;
82409;SDS011;72049;51.766;6.846;2023-08-31T02:24:29;9.57;;;4.50;;
82409;SDS011;72049;51.766;6.846;2023-08-31T02:26:55;7.77;;;4.30;;
82409;SDS011;72049;51.766;6.846;2023-08-31T02:29:21;8.48;;;4.38;;
82409;SDS011;72049;51.766;6.846;2023-08-31T02:31:46;9.13;;;5.43;;
82409;SDS011;72049;51.766;6.846;2023-08-31T02:34:11;8.68;;;4.63;;
82409;SDS011;72049;51.766;6.846;2023-08-31T02:36:37;10.25;;;4.45;;
82409;SDS011;72049;51.766;6.846;2023-08-31T02:39:02;9.60;;;4.78;;
82409;SDS011;72049;51.766;6.846;2023-08-31T02:41:29;7.38;;;4.60;;
82409;SDS011;72049;51.766;6.846;2023-08-31T02:43:54;9.32;;;4.75;;
82409;SDS011;72049;51.766;6.846;2023-08-31T02:46:20;9.60;;;4.70;;
82409;SDS011;72049;51.766;6.846;2023-08-31T02:48:45;11.07;;;5.28;;
82409;SDS011;72049;51.766;6.846;2023-08-31T02:51:11;10.50;;;5.00;;
82409;SDS011;72049;51.766;6.846;2023-08-31T02:53:36;11.15;;;5.40;;
82409;SDS011;72049;51.766;6.846;2023-08-31T02:56:02;9.95;;;5.40;;
82409;SDS011;72049;51.766;6.846;2023-08-31T02:58:28;11.45;;;5.78;;
82409;SDS011;72049;51.766;6.846;2023-08-31T03:00:54;9.95;;;6.03;;
82409;SDS011;72049;51.766;6.846;2023-08-31T03:03:19;9.93;;;6.60;;
82409;SDS011;72049;51.766;6.846;2023-08-31T03:05:45;11.02;;;5.50;;
82409;SDS011;72049;51.766;6.846;2023-08-31T03:08:10;13.27;;;6.22;;
82409;SDS011;72049;51.766;6.846;2023-08-31T03:10:36;12.25;;;6.20;;
82409;SDS011;72049;51.766;6.846;2023-08-31T03:13:02;11.90;;;6.38;;
82409;SDS011;72049;51.766;6.846;2023-08-31T03:15:28;11.45;;;6.07;;
82409;SDS011;72049;51.766;6.846;2023-08-31T03:17:53;12.98;;;7.22;;
82409;SDS011;72049;51.766;6.846;2023-08-31T03:20:19;14.45;;;7.13;;
82409;SDS011;72049;51.766;6.846;2023-08-31T03:22:45;11.70;;;6.15;;
82409;SDS011;72049;51.766;6.846;2023-08-31T03:25:10;13.02;;;7.05;;
82409;SDS011;72049;51.766;6.846;2023-08-31T03:27:36;14.85;;;7.45;;
82409;SDS011;72049;51.766;6.846;2023-08-31T03:30:01;15.95;;;7.40;;
82409;SDS011;72049;51.766;6.846;2023-08-31T03:32:27;14.32;;;7.38;;
82409;SDS011;72049;51.766;6.846;2023-08-31T03:34:53;17.17;;;6.97;;
82409;SDS011;72049;51.766;6.846;2023-08-31T03:37:20;17.60;;;8.05;;
82409;SDS011;72049;51.766;6.846;2023-08-31T03:39:47;13.82;;;7.68;;
82409;SDS011;72049;51.766;6.846;2023-08-31T03:42:12;15.98;;;8.10;;
82409;SDS011;72049;51.766;6.846;2023-08-31T03:44:38;16.50;;;8.57;;
82409;SDS011;72049;51.766;6.846;2023-08-31T03:47:03;16.17;;;8.33;;
82409;SDS011;72049;51.766;6.846;2023-08-31T03:49:29;17.55;;;7.93;;
82409;SDS011;72049;51.766;6.846;2023-08-31T03:51:57;17.83;;;8.13;;
82409;SDS011;72049;51.766;6.846;2023-08-31T03:54:23;19.20;;;8.65;;
82409;SDS011;72049;51.766;6.846;2023-08-31T03:56:48;16.42;;;8.30;;
82409;SDS011;72049;51.766;6.846;2023-08-31T03:59:14;16.50;;;8.30;;
82409;SDS011;72049;51.766;6.846;2023-08-31T04:01:39;15.15;;;8.32;;
82409;SDS011;72049;51.766;6.846;2023-08-31T04:04:05;14.88;;;8.73;;
82409;SDS011;72049;51.766;6.846;2023-08-31T04:06:30;18.00;;;7.93;;
82409;SDS011;72049;51.766;6.846;2023-08-31T04:08:56;14.95;;;7.85;;
82409;SDS011;72049;51.766;6.846;2023-08-31T04:11:21;16.37;;;8.27;;
82409;SDS011;72049;51.766;6.846;2023-08-31T04:13:47;16.00;;;7.93;;
82409;SDS011;72049;51.766;6.846;2023-08-31T04:16:13;19.05;;;8.05;;
82409;SDS011;72049;51.766;6.846;2023-08-31T04:18:38;17.03;;;8.40;;
82409;SDS011;72049;51.766;6.846;2023-08-31T04:21:03;17.10;;;7.83;;
82409;SDS011;72049;51.766;6.846;2023-08-31T04:23:29;16.53;;;7.73;;
82409;SDS011;72049;51.766;6.846;2023-08-31T04:25:54;18.92;;;7.57;;
82409;SDS011;72049;51.766;6.846;2023-08-31T04:28:19;13.30;;;7.17;;
82409;SDS011;72049;51.766;6.846;2023-08-31T04:30:47;17.48;;;7.40;;
82409;SDS011;72049;51.766;6.846;2023-08-31T04:33:27;15.68;;;7.18;;
82409;SDS011;72049;51.766;6.846;2023-08-31T04:36:05;16.23;;;8.20;;
82409;SDS011;72049;51.766;6.846;2023-08-31T04:38:31;16.63;;;8.25;;
82409;SDS011;72049;51.766;6.846;2023-08-31T04:40:59;17.17;;;8.27;;
82409;SDS011;72049;51.766;6.846;2023-08-31T04:43:25;17.35;;;8.35;;
82409;SDS011;72049;51.766;6.846;2023-08-31T04:45:51;19.00;;;8.68;;
82409;SDS011;72049;51.766;6.846;2023-08-31T04:48:16;15.40;;;7.57;;
82409;SDS011;72049;51.766;6.846;2023-08-31T04:50:41;20.47;;;9.20;;
82409;SDS011;72049;51.766;6.846;2023-08-31T04:53:07;21.03;;;8.97;;
82409;SDS011;72049;51.766;6.846;2023-08-31T04:55:32;21.33;;;9.53;;
82409;SDS011;72049;51.766;6.846;2023-08-31T04:57:57;20.40;;;9.60;;
82409;SDS011;72049;51.766;6.846;2023-08-31T05:00:23;19.97;;;10.00;;
82409;SDS011;72049;51.766;6.846;2023-08-31T05:02:51;23.95;;;11.20;;
82409;SDS011;72049;51.766;6.846;2023-08-31T05:05:16;22.93;;;10.97;;
82409;SDS011;72049;51.766;6.846;2023-08-31T05:07:43;24.52;;;12.05;;
82409;SDS011;72049;51.766;6.846;2023-08-31T05:10:08;27.38;;;12.90;;
82409;SDS011;72049;51.766;6.846;2023-08-31T05:12:40;27.88;;;13.02;;
82409;SDS011;72049;51.766;6.846;2023-08-31T05:15:06;26.53;;;12.30;;
82409;SDS011;72049;51.766;6.846;2023-08-31T05:17:34;30.75;;;13.60;;
82409;SDS011;72049;51.766;6.846;2023-08-31T05:19:59;29.88;;;12.85;;
82409;SDS011;72049;51.766;6.846;2023-08-31T05:22:24;29.87;;;14.07;;
82409;SDS011;72049;51.766;6.846;2023-08-31T05:24:50;30.60;;;14.60;;
82409;SDS011;72049;51.766;6.846;2023-08-31T05:27:15;30.55;;;13.70;;
82409;SDS011;72049;51.766;6.846;2023-08-31T05:29:40;28.87;;;12.90;;
82409;SDS011;72049;51.766;6.846;2023-08-31T05:32:06;29.17;;;13.70;;
82409;SDS011;72049;51.766;6.846;2023-08-31T05:34:31;27.85;;;12.80;;
82409;SDS011;72049;51.766;6.846;2023-08-31T05:36:59;29.65;;;13.80;;
82409;SDS011;72049;51.766;6.846;2023-08-31T05:39:25;28.98;;;13.70;;
82409;SDS011;72049;51.766;6.846;2023-08-31T05:41:50;27.52;;;14.02;;
82409;SDS011;72049;51.766;6.846;2023-08-31T05:44:16;28.00;;;12.93;;
82409;SDS011;72049;51.766;6.846;2023-08-31T05:46:41;30.40;;;13.43;;
82409;SDS011;72049;51.766;6.846;2023-08-31T05:49:06;28.85;;;14.05;;
82409;SDS011;72049;51.766;6.846;2023-08-31T05:51:32;30.58;;;13.23;;
82409;SDS011;72049;51.766;6.846;2023-08-31T05:53:57;25.83;;;12.82;;
82409;SDS011;72049;51.766;6.846;2023-08-31T05:56:23;26.07;;;12.90;;
82409;SDS011;72049;51.766;6.846;2023-08-31T05:58:48;23.80;;;12.43;;
82409;SDS011;72049;51.766;6.846;2023-08-31T06:01:15;24.08;;;12.55;;
82409;SDS011;72049;51.766;6.846;2023-08-31T06:03:40;24.25;;;11.80;;
82409;SDS011;72049;51.766;6.846;2023-08-31T06:06:06;21.30;;;10.73;;
82409;SDS011;72049;51.766;6.846;2023-08-31T06:08:31;20.60;;;11.38;;
82409;SDS011;72049;51.766;6.846;2023-08-31T06:10:56;21.47;;;10.60;;
82409;SDS011;72049;51.766;6.846;2023-08-31T06:13:22;22.40;;;11.13;;
82409;SDS011;72049;51.766;6.846;2023-08-31T06:15:47;23.67;;;11.47;;
82409;SDS011;72049;51.766;6.846;2023-08-31T06:18:12;21.90;;;10.75;;
82409;SDS011;72049;51.766;6.846;2023-08-31T06:20:38;18.48;;;9.88;;
82409;SDS011;72049;51.766;6.846;2023-08-31T06:23:03;17.93;;;9.87;;
82409;SDS011;72049;51.766;6.846;2023-08-31T06:25:28;19.10;;;10.40;;
82409;SDS011;72049;51.766;6.846;2023-08-31T06:27:54;16.58;;;9.05;;
82409;SDS011;72049;51.766;6.846;2023-08-31T06:30:19;19.77;;;10.27;;
82409;SDS011;72049;51.766;6.846;2023-08-31T06:32:45;17.55;;;8.77;;
82409;SDS011;72049;51.766;6.846;2023-08-31T06:35:11;16.48;;;9.40;;
82409;SDS011;72049;51.766;6.846;2023-08-31T06:37:37;16.52;;;9.30;;
82409;SDS011;72049;51.766;6.846;2023-08-31T06:40:03;13.68;;;8.25;;
82409;SDS011;72049;51.766;6.846;2023-08-31T06:42:29;15.30;;;8.63;;
82409;SDS011;72049;51.766;6.846;2023-08-31T06:44:54;15.20;;;8.47;;
82409;SDS011;72049;51.766;6.846;2023-08-31T06:47:22;13.93;;;8.38;;
82409;SDS011;72049;51.766;6.846;2023-08-31T06:49:47;15.73;;;8.70;;
82409;SDS011;72049;51.766;6.846;2023-08-31T06:52:12;13.50;;;7.87;;
82409;SDS011;72049;51.766;6.846;2023-08-31T06:54:37;14.17;;;8.27;;
82409;SDS011;72049;51.766;6.846;2023-08-31T06:57:03;13.00;;;7.13;;
82409;SDS011;72049;51.766;6.846;2023-08-31T06:59:29;13.20;;;7.30;;
82409;SDS011;72049;51.766;6.846;2023-08-31T07:01:54;14.00;;;7.27;;
82409;SDS011;72049;51.766;6.846;2023-08-31T07:04:19;12.53;;;6.57;;
82409;SDS011;72049;51.766;6.846;2023-08-31T07:06:44;12.80;;;6.43;;
82409;SDS011;72049;51.766;6.846;2023-08-31T07:09:10;11.90;;;6.10;;
82409;SDS011;72049;51.766;6.846;2023-08-31T07:11:35;10.77;;;6.30;;
82409;SDS011;72049;51.766;6.846;2023-08-31T07:14:01;15.05;;;6.32;;
82409;SDS011;72049;51.766;6.846;2023-08-31T07:16:26;11.70;;;6.22;;
82409;SDS011;72049;51.766;6.846;2023-08-31T07:18:51;10.00;;;6.30;;
82409;SDS011;72049;51.766;6.846;2023-08-31T07:21:25;13.15;;;6.38;;
82409;SDS011;72049;51.766;6.846;2023-08-31T07:23:56;12.98;;;6.90;;
82409;SDS011;72049;51.766;6.846;2023-08-31T07:26:22;10.73;;;5.85;;
82409;SDS011;72049;51.766;6.846;2023-08-31T07:28:48;8.53;;;5.47;;
82409;SDS011;72049;51.766;6.846;2023-08-31T07:31:13;12.02;;;5.82;;
82409;SDS011;72049;51.766;6.846;2023-08-31T07:33:39;9.13;;;5.28;;
82409;SDS011;72049;51.766;6.846;2023-08-31T07:36:07;10.70;;;5.00;;
82409;SDS011;72049;51.766;6.846;2023-08-31T07:38:33;10.23;;;5.05;;
82409;SDS011;72049;51.766;6.846;2023-08-31T07:40:58;11.43;;;4.97;;
82409;SDS011;72049;51.766;6.846;2023-08-31T07:43:25;8.75;;;4.55;;
82409;SDS011;72049;51.766;6.846;2023-08-31T07:45:51;8.05;;;4.28;;
82409;SDS011;72049;51.766;6.846;2023-08-31T07:48:16;10.17;;;4.67;;
82409;SDS011;72049;51.766;6.846;2023-08-31T07:50:42;9.48;;;4.35;;
82409;SDS011;72049;51.766;6.846;2023-08-31T07:53:10;7.18;;;4.68;;
82409;SDS011;72049;51.766;6.846;2023-08-31T07:55:36;5.68;;;3.58;;
82409;SDS011;72049;51.766;6.846;2023-08-31T07:58:01;5.40;;;3.20;;
82409;SDS011;72049;51.766;6.846;2023-08-31T08:00:26;9.13;;;3.47;;
82409;SDS011;72049;51.766;6.846;2023-08-31T08:02:52;6.72;;;3.10;;
82409;SDS011;72049;51.766;6.846;2023-08-31T08:05:17;6.07;;;3.40;;
82409;SDS011;72049;51.766;6.846;2023-08-31T08:07:42;5.97;;;3.60;;
82409;SDS011;72049;51.766;6.846;2023-08-31T08:10:08;5.82;;;3.30;;
82409;SDS011;72049;51.766;6.846;2023-08-31T08:12:52;5.63;;;3.13;;
82409;SDS011;72049;51.766;6.846;2023-08-31T08:15:17;5.90;;;3.33;;
82409;SDS011;72049;51.766;6.846;2023-08-31T08:17:43;5.77;;;3.07;;
82409;SDS011;72049;51.766;6.846;2023-08-31T08:20:08;6.00;;;2.77;;
82409;SDS011;72049;51.766;6.846;2023-08-31T08:22:34;7.03;;;3.00;;
82409;SDS011;72049;51.766;6.846;2023-08-31T08:25:01;5.95;;;2.72;;
82409;SDS011;72049;51.766;6.846;2023-08-31T08:27:27;4.63;;;2.75;;
82409;SDS011;72049;51.766;6.846;2023-08-31T08:29:53;5.63;;;2.83;;
82409;SDS011;72049;51.766;6.846;2023-08-31T08:32:18;5.60;;;2.67;;
82409;SDS011;72049;51.766;6.846;2023-08-31T08:34:43;5.37;;;2.73;;
82409;SDS011;72049;51.766;6.846;2023-08-31T08:37:08;4.70;;;2.53;;
82409;SDS011;72049;51.766;6.846;2023-08-31T08:39:34;5.63;;;3.13;;
82409;SDS011;72049;51.766;6.846;2023-08-31T08:41:59;4.67;;;2.77;;
82409;SDS011;72049;51.766;6.846;2023-08-31T08:44:24;4.23;;;2.53;;
82409;SDS011;72049;51.766;6.846;2023-08-31T08:46:50;5.28;;;2.58;;
82409;SDS011;72049;51.766;6.846;2023-08-31T08:49:16;6.18;;;2.78;;
82409;SDS011;72049;51.766;6.846;2023-08-31T08:51:41;5.90;;;2.60;;
82409;SDS011;72049;51.766;6.846;2023-08-31T08:54:07;4.63;;;2.90;;
82409;SDS011;72049;51.766;6.846;2023-08-31T08:56:32;5.93;;;3.70;;
82409;SDS011;72049;51.766;6.846;2023-08-31T08:58:58;4.95;;;2.70;;
82409;SDS011;72049;51.766;6.846;2023-08-31T09:01:24;4.95;;;2.60;;
82409;SDS011;72049;51.766;6.846;2023-08-31T09:03:50;5.90;;;3.15;;
82409;SDS011;72049;51.766;6.846;2023-08-31T09:06:16;6.80;;;2.95;;
82409;SDS011;72049;51.766;6.846;2023-08-31T09:08:41;5.35;;;2.88;;
82409;SDS011;72049;51.766;6.846;2023-08-31T09:11:06;5.38;;;2.30;;
82409;SDS011;72049;51.766;6.846;2023-08-31T09:13:32;5.15;;;2.35;;
82409;SDS011;72049;51.766;6.846;2023-08-31T09:15:58;3.90;;;2.30;;
82409;SDS011;72049;51.766;6.846;2023-08-31T09:18:27;5.53;;;2.43;;
82409;SDS011;72049;51.766;6.846;2023-08-31T09:20:53;4.50;;;2.97;;
82409;SDS011;72049;51.766;6.846;2023-08-31T09:23:19;4.68;;;3.00;;
82409;SDS011;72049;51.766;6.846;2023-08-31T09:25:48;5.60;;;3.10;;
82409;SDS011;72049;51.766;6.846;2023-08-31T09:28:14;6.05;;;2.88;;
82409;SDS011;72049;51.766;6.846;2023-08-31T09:30:40;5.32;;;2.85;;
82409;SDS011;72049;51.766;6.846;2023-08-31T09:33:24;4.65;;;2.47;;
82409;SDS011;72049;51.766;6.846;2023-08-31T09:35:49;4.70;;;2.55;;
82409;SDS011;72049;51.766;6.846;2023-08-31T09:38:16;4.47;;;3.00;;
82409;SDS011;72049;51.766;6.846;2023-08-31T09:40:41;5.30;;;3.10;;
82409;SDS011;72049;51.766;6.846;2023-08-31T09:43:06;6.43;;;3.30;;
82409;SDS011;72049;51.766;6.846;2023-08-31T09:45:32;7.57;;;3.00;;
82409;SDS011;72049;51.766;6.846;2023-08-31T09:47:59;5.72;;;3.42;;
82409;SDS011;72049;51.766;6.846;2023-08-31T09:50:24;5.82;;;3.03;;
82409;SDS011;72049;51.766;6.846;2023-08-31T09:52:50;7.28;;;3.10;;
82409;SDS011;72049;51.766;6.846;2023-08-31T09:55:20;6.65;;;3.10;;
82409;SDS011;72049;51.766;6.846;2023-08-31T09:57:45;5.30;;;3.00;;
82409;SDS011;72049;51.766;6.846;2023-08-31T10:00:12;3.70;;;2.72;;
82409;SDS011;72049;51.766;6.846;2023-08-31T10:02:40;5.88;;;3.22;;
82409;SDS011;72049;51.766;6.846;2023-08-31T10:05:06;6.65;;;3.40;;
82409;SDS011;72049;51.766;6.846;2023-08-31T10:07:31;5.78;;;2.70;;
82409;SDS011;72049;51.766;6.846;2023-08-31T10:09:57;5.70;;;2.60;;
82409;SDS011;72049;51.766;6.846;2023-08-31T10:12:22;5.18;;;2.72;;
82409;SDS011;72049;51.766;6.846;2023-08-31T10:14:48;5.00;;;2.90;;
82409;SDS011;72049;51.766;6.846;2023-08-31T10:17:14;6.53;;;2.97;;
82409;SDS011;72049;51.766;6.846;2023-08-31T10:19:39;9.07;;;3.40;;
82409;SDS011;72049;51.766;6.846;2023-08-31T10:22:05;5.57;;;2.30;;
82409;SDS011;72049;51.766;6.846;2023-08-31T10:27:18;5.65;;;2.35;;
82409;SDS011;72049;51.766;6.846;2023-08-31T10:29:43;4.88;;;3.00;;
82409;SDS011;72049;51.766;6.846;2023-08-31T10:32:09;6.47;;;2.87;;
82409;SDS011;72049;51.766;6.846;2023-08-31T10:34:35;4.43;;;2.22;;
82409;SDS011;72049;51.766;6.846;2023-08-31T10:37:16;4.90;;;2.50;;
82409;SDS011;72049;51.766;6.846;2023-08-31T10:39:48;5.75;;;2.70;;
82409;SDS011;72049;51.766;6.846;2023-08-31T10:42:42;5.32;;;2.75;;
82409;SDS011;72049;51.766;6.846;2023-08-31T10:45:08;4.32;;;2.40;;
82409;SDS011;72049;51.766;6.846;2023-08-31T10:47:37;5.45;;;2.38;;
82409;SDS011;72049;51.766;6.846;2023-08-31T10:50:15;3.70;;;2.15;;
82409;SDS011;72049;51.766;6.846;2023-08-31T10:52:45;3.35;;;2.20;;
82409;SDS011;72049;51.766;6.846;2023-08-31T10:55:14;3.58;;;2.15;;
82409;SDS011;72049;51.766;6.846;2023-08-31T10:57:40;4.63;;;2.72;;
82409;SDS011;72049;51.766;6.846;2023-08-31T11:00:06;4.38;;;2.13;;
82409;SDS011;72049;51.766;6.846;2023-08-31T11:02:42;5.20;;;2.42;;
82409;SDS011;72049;51.766;6.846;2023-08-31T11:05:14;5.30;;;2.55;;
82409;SDS011;72049;51.766;6.846;2023-08-31T11:07:41;4.82;;;2.42;;
82409;SDS011;72049;51.766;6.846;2023-08-31T11:12:41;4.30;;;2.40;;
82409;SDS011;72049;51.766;6.846;2023-08-31T11:15:06;6.20;;;2.28;;
82409;SDS011;72049;51.766;6.846;2023-08-31T11:17:32;3.92;;;2.10;;
82409;SDS011;72049;51.766;6.846;2023-08-31T11:19:58;6.50;;;2.10;;
82409;SDS011;72049;51.766;6.846;2023-08-31T11:22:23;4.97;;;2.40;;
82409;SDS011;72049;51.766;6.846;2023-08-31T11:24:49;4.55;;;1.92;;
82409;SDS011;72049;51.766;6.846;2023-08-31T11:27:14;5.90;;;1.80;;
82409;SDS011;72049;51.766;6.846;2023-08-31T11:29:43;3.40;;;1.70;;
82409;SDS011;72049;51.766;6.846;2023-08-31T11:32:08;3.22;;;1.60;;
82409;SDS011;72049;51.766;6.846;2023-08-31T11:34:34;3.30;;;1.33;;
82409;SDS011;72049;51.766;6.846;2023-08-31T11:37:01;2.78;;;1.10;;
82409;SDS011;72049;51.766;6.846;2023-08-31T11:39:31;2.97;;;1.13;;
82409;SDS011;72049;51.766;6.846;2023-08-31T11:41:57;5.32;;;1.73;;
82409;SDS011;72049;51.766;6.846;2023-08-31T11:44:22;4.00;;;1.10;;
82409;SDS011;72049;51.766;6.846;2023-08-31T11:46:48;4.10;;;1.38;;
82409;SDS011;72049;51.766;6.846;2023-08-31T11:49:18;2.50;;;1.50;;
82409;SDS011;72049;51.766;6.846;2023-08-31T11:51:44;2.67;;;1.40;;
82409;SDS011;72049;51.766;6.846;2023-08-31T11:54:10;3.45;;;1.85;;
82409;SDS011;72049;51.766;6.846;2023-08-31T11:56:42;2.85;;;1.30;;
82409;SDS011;72049;51.766;6.846;2023-08-31T11:59:11;2.13;;;1.25;;
82409;SDS011;72049;51.766;6.846;2023-08-31T12:01:39;2.53;;;1.55;;
82409;SDS011;72049;51.766;6.846;2023-08-31T12:04:19;4.40;;;1.65;;
82409;SDS011;72049;51.766;6.846;2023-08-31T12:06:47;1.98;;;1.17;;
82409;SDS011;72049;51.766;6.846;2023-08-31T12:09:15;3.53;;;1.42;;
82409;SDS011;72049;51.766;6.846;2023-08-31T12:11:40;3.15;;;1.40;;
82409;SDS011;72049;51.766;6.846;2023-08-31T12:14:18;4.10;;;1.17;;
82409;SDS011;72049;51.766;6.846;2023-08-31T12:16:43;4.47;;;1.88;;
82409;SDS011;72049;51.766;6.846;2023-08-31T12:19:09;3.95;;;1.60;;
82409;SDS011;72049;51.766;6.846;2023-08-31T12:21:35;3.22;;;1.65;;
82409;SDS011;72049;51.766;6.846;2023-08-31T12:24:00;3.13;;;1.45;;
82409;SDS011;72049;51.766;6.846;2023-08-31T12:26:26;3.40;;;1.88;;
82409;SDS011;72049;51.766;6.846;2023-08-31T12:28:52;3.45;;;1.50;;
82409;SDS011;72049;51.766;6.846;2023-08-31T12:31:17;3.20;;;1.63;;
82409;SDS011;72049;51.766;6.846;2023-08-31T12:33:42;4.60;;;1.80;;
82409;SDS011;72049;51.766;6.846;2023-08-31T12:36:08;3.55;;;1.60;;
82409;SDS011;72049;51.766;6.846;2023-08-31T12:38:33;2.75;;;1.75;;
82409;SDS011;72049;51.766;6.846;2023-08-31T12:40:59;5.37;;;2.50;;
82409;SDS011;72049;51.766;6.846;2023-08-31T12:43:26;4.47;;;1.88;;
82409;SDS011;72049;51.766;6.846;2023-08-31T12:45:51;6.18;;;2.83;;
82409;SDS011;72049;51.766;6.846;2023-08-31T12:48:17;5.07;;;2.97;;
82409;SDS011;72049;51.766;6.846;2023-08-31T12:50:42;4.17;;;3.10;;
82409;SDS011;72049;51.766;6.846;2023-08-31T12:53:08;5.15;;;2.80;;
82409;SDS011;72049;51.766;6.846;2023-08-31T12:55:33;4.87;;;2.60;;
82409;SDS011;72049;51.766;6.846;2023-08-31T12:57:58;4.83;;;2.90;;
82409;SDS011;72049;51.766;6.846;2023-08-31T13:00:24;4.05;;;2.65;;
82409;SDS011;72049;51.766;6.846;2023-08-31T13:02:50;5.88;;;2.38;;
82409;SDS011;72049;51.766;6.846;2023-08-31T13:05:16;2.60;;;1.80;;
82409;SDS011;72049;51.766;6.846;2023-08-31T13:07:45;4.37;;;2.10;;
82409;SDS011;72049;51.766;6.846;2023-08-31T13:10:20;2.70;;;2.15;;
82409;SDS011;72049;51.766;6.846;2023-08-31T13:15:31;2.60;;;1.40;;
82409;SDS011;72049;51.766;6.846;2023-08-31T13:17:57;2.03;;;1.45;;
82409;SDS011;72049;51.766;6.846;2023-08-31T13:20:22;1.97;;;1.20;;
82409;SDS011;72049;51.766;6.846;2023-08-31T13:22:47;3.43;;;1.43;;
82409;SDS011;72049;51.766;6.846;2023-08-31T13:25:13;2.40;;;1.30;;
82409;SDS011;72049;51.766;6.846;2023-08-31T13:27:38;1.80;;;1.45;;
82409;SDS011;72049;51.766;6.846;2023-08-31T13:30:04;2.30;;;1.40;;
82409;SDS011;72049;51.766;6.846;2023-08-31T13:32:31;2.60;;;1.20;;
82409;SDS011;72049;51.766;6.846;2023-08-31T13:34:56;1.80;;;1.20;;
82409;SDS011;72049;51.766;6.846;2023-08-31T13:37:22;1.17;;;0.85;;
82409;SDS011;72049;51.766;6.846;2023-08-31T13:39:49;2.05;;;1.20;;
82409;SDS011;72049;51.766;6.846;2023-08-31T13:42:15;3.28;;;1.27;;
82409;SDS011;72049;51.766;6.846;2023-08-31T13:44:40;1.77;;;1.30;;
82409;SDS011;72049;51.766;6.846;2023-08-31T13:47:06;3.22;;;1.33;;
82409;SDS011;72049;51.766;6.846;2023-08-31T13:49:31;2.72;;;1.50;;
82409;SDS011;72049;51.766;6.846;2023-08-31T13:51:59;1.90;;;1.23;;
82409;SDS011;72049;51.766;6.846;2023-08-31T13:54:24;2.78;;;1.17;;
82409;SDS011;72049;51.766;6.846;2023-08-31T13:56:50;1.45;;;1.00;;
82409;SDS011;72049;51.766;6.846;2023-08-31T13:59:16;2.13;;;1.35;;
82409;SDS011;72049;51.766;6.846;2023-08-31T14:01:41;3.47;;;1.70;;
82409;SDS011;72049;51.766;6.846;2023-08-31T14:04:07;2.30;;;1.50;;
82409;SDS011;72049;51.766;6.846;2023-08-31T14:06:32;3.22;;;1.88;;
82409;SDS011;72049;51.766;6.846;2023-08-31T14:08:58;3.63;;;1.50;;
82409;SDS011;72049;51.766;6.846;2023-08-31T14:11:23;6.15;;;1.90;;
82409;SDS011;72049;51.766;6.846;2023-08-31T14:13:48;2.30;;;1.80;;
82409;SDS011;72049;51.766;6.846;2023-08-31T14:16:14;3.85;;;1.80;;
82409;SDS011;72049;51.766;6.846;2023-08-31T14:18:39;2.93;;;2.00;;
82409;SDS011;72049;51.766;6.846;2023-08-31T14:21:04;3.50;;;2.00;;
82409;SDS011;72049;51.766;6.846;2023-08-31T14:23:30;4.30;;;2.30;;
82409;SDS011;72049;51.766;6.846;2023-08-31T14:26:02;3.53;;;2.00;;
82409;SDS011;72049;51.766;6.846;2023-08-31T14:28:28;2.88;;;1.77;;
82409;SDS011;72049;51.766;6.846;2023-08-31T14:30:53;3.42;;;2.03;;
82409;SDS011;72049;51.766;6.846;2023-08-31T14:33:19;4.30;;;2.20;;
82409;SDS011;72049;51.766;6.846;2023-08-31T14:35:44;4.33;;;1.87;;
82409;SDS011;72049;51.766;6.846;2023-08-31T14:38:10;2.63;;;1.70;;
82409;SDS011;72049;51.766;6.846;2023-08-31T14:40:37;3.55;;;1.92;;
82409;SDS011;72049;51.766;6.846;2023-08-31T14:43:05;3.75;;;1.63;;
82409;SDS011;72049;51.766;6.846;2023-08-31T14:45:30;2.47;;;1.70;;
82409;SDS011;72049;51.766;6.846;2023-08-31T14:47:55;4.10;;;2.20;;
82409;SDS011;72049;51.766;6.846;2023-08-31T14:50:21;2.97;;;2.10;;
82409;SDS011;72049;51.766;6.846;2023-08-31T14:52:47;3.23;;;2.07;;
82409;SDS011;72049;51.766;6.846;2023-08-31T14:55:12;3.17;;;1.90;;